Aberdeen, Ohio
Current Conditions -  °F | °C
As of 12:35 PM on Tuesday 21 Oct 2014 (Local Time) from KFGX Reporting Station
Overcast Overcast  
Wind Chill: 55°   Ceiling: 4300
Heat Index: 55°   Visibility: 10mi
Dew Point: 42°   Wind: 9mph
Humidity: 62%   Direction: 320°NW
Pressure: 30.03"   Gusts: NA
Location:  38.66°N, 83.76°W
Report Text: KFGX 211635Z AUTO 32008KT 10SM SCT030 BKN043 OVC050 13/05 A3003 RMK AO2 T01260054
Loading
Personal Weather Stations






























Interactive Weather Map
Tropical Storm Tracking
New forecast layout! Learn more

10-Day Weather Forecast

Advertisements
Track Severe Weather on mobile